EGXT - Wittering
Distance from station: E 5mi, 14km
Updated: 10/20/2017 1:50pm
Mostly Cloudy
Mostly Cloudy
 Wind from S
Wind: S 13 mph , 20 km/h
Temperature: 52°F , 11°C
Dew Point: 46°F , 8°C
Humidity: 82%
Barometer: 29.65 inHg , 1004 hPa
Clouds: Mostly Cloudy
Visibility: 6 miles , 10 km
Cloud details: Mostly Cloudy 9000 ft
Mostly Cloudy 14000 ft
2017/10/20 20:50 EGXT 202050Z AUTO 17011KT 9999 BKN090/// BKN140/// 11/08 Q1004